Time;durP1;ratioP1;P1;durP2;ratioP2;P2;SDS_P1;SDS_P2;PMS_P1;PMS_P2;Temp;Humidity;BMP_temperature;BMP_pressure;BME280_temperature;BME280_humidity;BME280_pressure;Samples;Min_cycle;Max_cycle;Signal;HPM_P1;HPM_P2
2022/03/15 00:01:29;;;;;;;8.40;5.80;;;3.50;73.90;;;;;;5059991;28;20051;-76
2022/03/15 00:03:55;;;;;;;7.55;5.25;;;3.40;73.90;;;;;;5051202;28;20029;-77
2022/03/15 00:06:20;;;;;;;8.93;5.40;;;3.50;74.00;;;;;;5045047;28;20421;-78
2022/03/15 00:08:46;;;;;;;8.88;5.55;;;3.40;73.90;;;;;;5055049;28;20049;-78
2022/03/15 00:11:12;;;;;;;9.52;5.00;;;3.40;73.90;;;;;;5067948;28;20074;-78
2022/03/15 00:13:38;;;;;;;12.38;5.53;;;3.50;74.10;;;;;;5050805;28;20045;-78
2022/03/15 00:16:05;;;;;;;7.30;5.05;;;3.50;74.10;;;;;;5048982;28;20032;-77
2022/03/15 00:18:31;;;;;;;7.63;5.13;;;3.40;74.00;;;;;;5040805;28;20048;-78
2022/03/15 00:20:58;;;;;;;8.15;5.32;;;3.40;74.10;;;;;;5046402;28;20025;-78
2022/03/15 00:23:23;;;;;;;8.52;4.82;;;3.40;74.10;;;;;;5081098;28;20030;-77
2022/03/15 00:25:49;;;;;;;7.30;5.00;;;3.40;74.10;;;;;;5052642;28;20048;-77
2022/03/15 00:28:16;;;;;;;9.77;4.97;;;3.30;74.10;;;;;;5064694;28;20040;-77
2022/03/15 00:30:42;;;;;;;10.25;4.78;;;3.30;74.20;;;;;;5027896;28;20468;-77
2022/03/15 00:33:08;;;;;;;7.05;4.68;;;3.30;74.30;;;;;;5021907;28;20017;-77
2022/03/15 00:35:33;;;;;;;10.02;5.18;;;3.30;74.30;;;;;;5056437;28;20031;-78
2022/03/15 00:37:59;;;;;;;6.68;4.00;;;3.30;74.30;;;;;;5065474;28;20029;-77
2022/03/15 00:40:25;;;;;;;7.63;4.95;;;3.30;74.40;;;;;;5054026;28;20392;-77
2022/03/15 00:42:53;;;;;;;6.20;4.07;;;3.20;74.40;;;;;;5071284;28;20076;-77
2022/03/15 00:45:19;;;;;;;7.50;4.32;;;3.20;74.40;;;;;;5059974;28;20092;-77
2022/03/15 00:47:45;;;;;;;7.90;4.50;;;3.20;74.40;;;;;;5036388;28;20033;-77
2022/03/15 00:50:11;;;;;;;8.77;4.13;;;3.20;74.50;;;;;;5073704;28;20029;-78
2022/03/15 00:52:37;;;;;;;7.20;4.72;;;3.10;74.50;;;;;;5051155;28;20033;-77
2022/03/15 00:55:04;;;;;;;8.68;4.78;;;3.10;74.60;;;;;;5056973;28;20033;-77
2022/03/15 00:57:30;;;;;;;7.93;5.07;;;3.10;74.70;;;;;;5047058;28;20362;-77
2022/03/15 00:59:56;;;;;;;5.97;4.05;;;3.20;74.80;;;;;;5047907;28;20436;-77
2022/03/15 01:02:21;;;;;;;7.72;4.82;;;3.10;74.90;;;;;;5053720;28;21542;-78
2022/03/15 01:04:47;;;;;;;7.10;4.35;;;3.10;74.80;;;;;;5075668;28;20059;-75
2022/03/15 01:07:13;;;;;;;8.90;5.07;;;3.10;74.80;;;;;;5047497;28;20040;-78
2022/03/15 01:09:39;;;;;;;6.50;4.55;;;3.10;74.80;;;;;;5050566;28;20016;-78
2022/03/15 01:12:05;;;;;;;6.75;4.25;;;3.10;74.90;;;;;;5012709;28;20525;-77
2022/03/15 01:14:31;;;;;;;7.25;4.10;;;3.10;74.90;;;;;;5041016;28;20041;-77
2022/03/15 01:16:57;;;;;;;6.40;4.28;;;3.10;75.00;;;;;;5060106;28;20032;-77
2022/03/15 01:19:23;;;;;;;7.95;4.57;;;3.10;75.00;;;;;;5058531;28;20027;-77
2022/03/15 01:21:50;;;;;;;8.93;4.60;;;3.10;75.20;;;;;;5052781;28;20044;-78
2022/03/15 01:24:15;;;;;;;7.05;4.07;;;3.10;76.00;;;;;;5053714;28;20022;-77
2022/03/15 01:26:42;;;;;;;10.18;4.72;;;3.00;75.10;;;;;;5076142;28;20109;-77
2022/03/15 01:29:07;;;;;;;6.18;4.22;;;3.00;75.10;;;;;;5057334;28;20033;-78
2022/03/15 01:31:33;;;;;;;5.80;3.88;;;3.00;75.20;;;;;;5049314;28;20028;-77
2022/03/15 01:33:59;;;;;;;7.03;4.72;;;3.00;75.20;;;;;;5057141;28;20009;-77
2022/03/15 01:36:25;;;;;;;8.75;4.60;;;3.00;75.20;;;;;;5030187;28;20040;-77
2022/03/15 01:38:52;;;;;;;7.68;4.72;;;2.90;75.20;;;;;;5059196;28;20025;-77
2022/03/15 01:41:18;;;;;;;7.28;4.63;;;2.90;75.20;;;;;;5056262;28;20021;-78
2022/03/15 01:43:46;;;;;;;9.48;4.20;;;2.90;75.30;;;;;;5065633;28;20039;-77
2022/03/15 01:46:12;;;;;;;7.63;4.45;;;2.90;75.40;;;;;;5065812;28;20033;-76
2022/03/15 01:48:37;;;;;;;8.93;4.68;;;2.90;75.50;;;;;;5055087;28;20052;-77
2022/03/15 01:51:03;;;;;;;8.43;5.05;;;2.90;75.60;;;;;;5060919;28;20383;-77
2022/03/15 01:53:29;;;;;;;7.32;5.15;;;2.90;75.60;;;;;;5044638;28;20035;-76
2022/03/15 01:55:54;;;;;;;6.43;4.13;;;2.90;75.80;;;;;;5034462;28;20609;-77
2022/03/15 01:58:21;;;;;;;9.80;4.45;;;2.90;75.70;;;;;;5047228;28;20056;-78
2022/03/15 02:00:48;;;;;;;6.50;4.20;;;2.80;75.70;;;;;;5033901;28;20080;-77
2022/03/15 02:03:13;;;;;;;6.60;4.53;;;2.90;75.80;;;;;;5053171;28;20020;-76
2022/03/15 02:05:39;;;;;;;7.10;4.40;;;2.90;76.00;;;;;;5052019;28;20035;-78
2022/03/15 02:08:10;;;;;;;6.72;4.57;;;2.90;76.00;;;;;;5047594;28;20065;-77
2022/03/15 02:10:35;;;;;;;7.50;4.32;;;2.90;76.10;;;;;;5038944;28;20031;-76
2022/03/15 02:13:01;;;;;;;6.45;4.35;;;2.90;76.10;;;;;;5057625;28;20036;-78
2022/03/15 02:15:29;;;;;;;8.68;4.65;;;2.90;76.10;;;;;;5066238;28;20044;-76
2022/03/15 02:17:55;;;;;;;8.95;4.90;;;2.90;76.10;;;;;;5033240;28;20081;-77
2022/03/15 02:20:21;;;;;;;9.93;4.72;;;2.90;76.10;;;;;;5005220;28;20659;-74
2022/03/15 02:22:46;;;;;;;9.48;4.53;;;2.90;76.10;;;;;;5046870;28;20067;-77
2022/03/15 02:25:12;;;;;;;9.50;4.63;;;2.80;76.00;;;;;;5058208;28;20053;-76
2022/03/15 02:27:38;;;;;;;6.70;4.75;;;2.90;76.10;;;;;;5049139;28;20036;-76
2022/03/15 02:30:06;;;;;;;8.85;4.32;;;2.80;76.20;;;;;;5064783;28;20038;-77
2022/03/15 02:32:34;;;;;;;7.70;4.70;;;2.90;76.30;;;;;;5058900;28;20227;-77
2022/03/15 02:35:00;;;;;;;7.05;4.65;;;2.90;76.40;;;;;;5029982;28;20037;-77
2022/03/15 02:37:26;;;;;;;8.65;4.82;;;2.90;76.40;;;;;;5068674;28;20025;-77
2022/03/15 02:39:51;;;;;;;10.13;4.75;;;2.90;76.40;;;;;;5059323;28;20025;-77
2022/03/15 02:42:17;;;;;;;9.38;5.30;;;2.90;76.40;;;;;;5070000;28;20114;-77
2022/03/15 02:44:43;;;;;;;6.97;4.53;;;2.90;76.40;;;;;;5037465;28;20725;-77
2022/03/15 02:47:08;;;;;;;8.40;5.20;;;2.90;76.40;;;;;;5077540;28;20041;-77
2022/03/15 02:49:34;;;;;;;8.32;4.88;;;2.90;76.40;;;;;;5047156;28;20036;-77
2022/03/15 02:52:00;;;;;;;6.65;4.25;;;2.90;76.40;;;;;;5061155;28;20036;-77
2022/03/15 02:54:25;;;;;;;9.43;4.95;;;2.90;76.40;;;;;;5065716;28;20131;-78
2022/03/15 02:56:51;;;;;;;6.00;4.35;;;2.80;76.40;;;;;;5059572;28;20032;-78
2022/03/15 02:59:17;;;;;;;7.20;4.57;;;2.90;76.50;;;;;;5073613;28;20084;-79
2022/03/15 03:01:43;;;;;;;7.47;4.45;;;2.90;76.60;;;;;;5062716;28;20033;-76
2022/03/15 03:04:10;;;;;;;9.48;4.57;;;2.90;76.60;;;;;;5069687;28;20048;-77
2022/03/15 03:06:36;;;;;;;9.15;4.25;;;2.90;76.70;;;;;;5050749;28;20017;-77
2022/03/15 03:09:02;;;;;;;7.50;4.43;;;2.80;76.60;;;;;;5065688;28;20041;-77
2022/03/15 03:11:28;;;;;;;12.20;4.35;;;2.80;76.60;;;;;;5025595;28;20037;-78
2022/03/15 03:13:55;;;;;;;10.60;4.93;;;2.80;76.60;;;;;;5051740;28;20044;-77
2022/03/15 03:16:21;;;;;;;8.75;5.07;;;2.80;76.60;;;;;;5044482;28;20028;-76
2022/03/15 03:18:46;;;;;;;8.38;4.30;;;2.70;76.70;;;;;;5036651;28;20071;-76
2022/03/15 03:21:12;;;;;;;7.57;4.78;;;2.70;76.80;;;;;;5034960;28;20040;-77
2022/03/15 03:23:39;;;;;;;5.88;3.97;;;2.70;76.80;;;;;;5065623;28;20246;-77
2022/03/15 03:26:04;;;;;;;7.55;4.00;;;2.70;76.80;;;;;;5034507;28;20044;-77
2022/03/15 03:28:39;;;;;;;6.38;4.85;;;2.80;77.00;;;;;;5049656;28;20055;-77
2022/03/15 03:31:08;;;;;;;7.35;4.40;;;2.80;77.00;;;;;;5046746;28;20071;-77
2022/03/15 03:33:34;;;;;;;7.03;4.47;;;2.70;76.90;;;;;;5030191;28;21163;-77
2022/03/15 03:36:00;;;;;;;9.77;5.07;;;2.70;77.00;;;;;;5048412;28;20037;-77
2022/03/15 03:38:25;;;;;;;8.00;4.25;;;2.70;77.00;;;;;;5033258;28;20049;-77
2022/03/15 03:40:51;;;;;;;7.43;4.22;;;2.70;77.10;;;;;;5041942;28;20044;-76
2022/03/15 03:43:16;;;;;;;8.27;4.72;;;2.70;77.10;;;;;;5053206;28;20523;-76
2022/03/15 03:45:42;;;;;;;7.28;4.68;;;2.70;77.10;;;;;;5020227;28;20044;-77
2022/03/15 03:48:08;;;;;;;6.57;4.40;;;2.70;77.10;;;;;;5021134;28;20126;-76
2022/03/15 03:50:34;;;;;;;6.85;4.55;;;2.70;77.20;;;;;;5055255;28;20037;-77
2022/03/15 03:52:59;;;;;;;11.30;5.00;;;2.70;77.20;;;;;;5030946;28;20516;-76
2022/03/15 03:55:25;;;;;;;8.40;4.90;;;2.70;77.10;;;;;;5018989;28;20033;-76
2022/03/15 03:57:51;;;;;;;9.18;4.50;;;2.70;77.20;;;;;;5038696;28;20089;-77
2022/03/15 04:00:16;;;;;;;8.18;4.65;;;2.70;77.30;;;;;;5035343;28;20608;-77
2022/03/15 04:02:42;;;;;;;7.93;4.13;;;2.60;77.20;;;;;;5019995;28;20184;-77
2022/03/15 04:05:08;;;;;;;6.43;3.95;;;2.70;77.30;;;;;;5020038;28;20037;-77
2022/03/15 04:07:35;;;;;;;6.88;4.20;;;2.70;77.40;;;;;;5040862;28;20037;-76
2022/03/15 04:10:02;;;;;;;4.93;3.53;;;2.70;78.20;;;;;;5010325;28;20089;-77
2022/03/15 04:12:29;;;;;;;8.60;4.97;;;2.60;77.40;;;;;;5014801;28;20116;-77
2022/03/15 04:14:57;;;;;;;8.48;4.47;;;2.70;77.50;;;;;;5018540;28;20085;-77
2022/03/15 04:17:23;;;;;;;7.55;4.47;;;2.70;77.60;;;;;;5032243;28;20029;-77
2022/03/15 04:19:49;;;;;;;7.80;4.43;;;2.70;77.60;;;;;;5025893;28;20072;-76
2022/03/15 04:22:17;;;;;;;7.40;4.03;;;2.70;77.70;;;;;;5028028;28;20032;-77
2022/03/15 04:24:42;;;;;;;7.88;4.50;;;2.70;77.70;;;;;;5004992;28;20136;-77
2022/03/15 04:27:08;;;;;;;8.05;4.13;;;2.70;77.70;;;;;;5025555;28;20034;-77
2022/03/15 04:29:33;;;;;;;7.35;5.03;;;2.70;77.70;;;;;;5025754;28;20029;-77
2022/03/15 04:31:59;;;;;;;9.88;5.53;;;2.60;77.70;;;;;;5004286;28;20036;-78
2022/03/15 04:34:25;;;;;;;10.55;5.63;;;2.60;77.80;;;;;;5012119;28;20029;-78
2022/03/15 04:36:52;;;;;;;12.88;5.60;;;2.70;77.80;;;;;;5023376;28;20026;-77
2022/03/15 04:39:17;;;;;;;8.25;5.25;;;2.60;77.80;;;;;;5023906;28;20029;-78
2022/03/15 04:41:45;;;;;;;6.90;4.57;;;2.60;77.80;;;;;;5015845;28;20093;-78
2022/03/15 04:44:11;;;;;;;8.63;5.18;;;2.70;77.90;;;;;;5037507;28;20040;-78
2022/03/15 04:46:36;;;;;;;7.72;4.90;;;2.60;77.90;;;;;;5036297;28;20045;-78
2022/03/15 04:49:02;;;;;;;7.35;4.65;;;2.60;77.90;;;;;;5025855;28;20542;-79
2022/03/15 04:51:28;;;;;;;7.47;4.85;;;2.60;77.90;;;;;;5035556;28;20278;-76
2022/03/15 04:53:53;;;;;;;7.28;4.57;;;2.60;78.00;;;;;;5041489;28;20038;-77
2022/03/15 04:56:19;;;;;;;8.00;4.78;;;2.60;78.00;;;;;;5042438;28;20041;-78
2022/03/15 04:58:44;;;;;;;7.35;4.57;;;2.60;78.10;;;;;;5042273;28;20033;-77
2022/03/15 05:01:10;;;;;;;7.65;4.53;;;2.60;78.00;;;;;;5035200;28;20026;-78
2022/03/15 05:03:35;;;;;;;9.48;4.97;;;2.60;78.00;;;;;;5044660;28;20100;-77
2022/03/15 05:06:02;;;;;;;6.95;4.57;;;2.60;78.00;;;;;;5027090;28;20056;-77
2022/03/15 05:08:27;;;;;;;7.25;4.25;;;2.60;78.00;;;;;;5037109;28;20044;-77
2022/03/15 05:11:09;;;;;;;6.00;3.65;;;2.60;78.10;;;;;;5037906;28;20100;-77
2022/03/15 05:13:44;;;;;;;8.18;4.60;;;2.50;78.10;;;;;;5027341;28;20033;-78
2022/03/15 05:16:15;;;;;;;6.47;3.90;;;2.60;78.20;;;;;;5025024;28;20033;-77
2022/03/15 05:18:41;;;;;;;6.60;4.30;;;2.60;78.20;;;;;;5004795;28;20444;-78
2022/03/15 05:21:09;;;;;;;7.25;4.38;;;2.60;78.30;;;;;;5045412;28;20030;-76
2022/03/15 05:23:35;;;;;;;7.15;4.80;;;2.60;78.40;;;;;;5023810;28;20108;-77
2022/03/15 05:26:01;;;;;;;7.18;4.75;;;2.60;78.40;;;;;;5015670;28;20037;-76
2022/03/15 05:28:26;;;;;;;7.65;4.88;;;2.60;78.40;;;;;;4995999;28;20141;-76
2022/03/15 05:30:52;;;;;;;6.60;4.28;;;2.50;78.40;;;;;;5020173;28;20045;-76
2022/03/15 05:33:18;;;;;;;7.35;5.18;;;2.60;78.50;;;;;;4990468;28;20037;-77
2022/03/15 05:35:44;;;;;;;8.40;4.82;;;2.60;78.50;;;;;;5040313;28;20057;-77
2022/03/15 05:38:10;;;;;;;7.22;4.38;;;2.60;78.60;;;;;;5017144;28;20033;-76
2022/03/15 05:40:35;;;;;;;5.43;4.03;;;2.60;78.60;;;;;;5010079;28;20485;-76
2022/03/15 05:43:01;;;;;;;7.68;4.18;;;2.60;78.60;;;;;;5019879;28;20107;-76
2022/03/15 05:45:27;;;;;;;5.97;4.13;;;2.60;78.60;;;;;;5012904;28;20045;-77
2022/03/15 05:47:53;;;;;;;9.35;5.32;;;2.60;78.70;;;;;;5008191;28;20083;-77
2022/03/15 05:50:18;;;;;;;12.82;6.72;;;2.60;78.60;;;;;;5017047;28;20033;-77
2022/03/15 05:52:44;;;;;;;14.18;9.10;;;2.60;78.70;;;;;;5022355;28;20037;-77
2022/03/15 05:55:11;;;;;;;10.75;7.35;;;2.60;78.70;;;;;;5029627;28;20191;-77
2022/03/15 05:57:37;;;;;;;10.40;6.57;;;2.60;78.80;;;;;;5033152;28;20037;-76
2022/03/15 06:00:05;;;;;;;15.00;9.60;;;2.60;78.80;;;;;;5036625;28;20049;-76
2022/03/15 06:02:30;;;;;;;9.20;6.15;;;2.60;78.90;;;;;;5020230;28;20068;-76
2022/03/15 06:04:57;;;;;;;8.65;5.88;;;2.60;78.90;;;;;;5031914;28;20034;-77
2022/03/15 06:07:23;;;;;;;10.15;5.25;;;2.60;78.90;;;;;;5042710;28;20037;-77
2022/03/15 06:09:49;;;;;;;7.65;5.07;;;2.60;78.90;;;;;;5036111;28;20037;-78
2022/03/15 06:12:15;;;;;;;12.52;8.45;;;2.60;79.30;;;;;;5010438;28;20037;-77
2022/03/15 06:14:40;;;;;;;11.27;7.50;;;2.70;79.00;;;;;;5024851;28;20069;-77
2022/03/15 06:17:06;;;;;;;11.52;7.28;;;2.70;79.00;;;;;;5010795;28;20033;-76
2022/03/15 06:19:31;;;;;;;12.15;7.82;;;2.70;79.10;;;;;;5038318;28;20030;-77
2022/03/15 06:21:57;;;;;;;16.45;8.75;;;2.70;79.00;;;;;;5040159;28;20030;-77
2022/03/15 06:24:23;;;;;;;9.98;6.43;;;2.70;79.00;;;;;;5013075;28;20029;-77
2022/03/15 06:26:49;;;;;;;13.07;6.50;;;2.70;79.00;;;;;;5049057;28;20395;-78
2022/03/15 06:29:15;;;;;;;8.05;5.55;;;2.70;79.00;;;;;;5033733;28;20073;-76
2022/03/15 06:31:40;;;;;;;12.15;5.65;;;2.70;79.10;;;;;;5048305;28;20042;-78
2022/03/15 06:34:06;;;;;;;8.95;5.53;;;2.80;80.00;;;;;;5033306;28;20033;-77
2022/03/15 06:36:34;;;;;;;9.73;5.57;;;2.80;79.20;;;;;;5031999;28;20038;-77
2022/03/15 06:38:59;;;;;;;9.65;6.55;;;2.80;79.30;;;;;;5047750;28;20030;-76
2022/03/15 06:41:25;;;;;;;18.23;9.65;;;2.80;79.30;;;;;;5024912;28;20025;-77
2022/03/15 06:43:50;;;;;;;12.77;7.63;;;2.90;79.40;;;;;;5031719;28;20049;-77
2022/03/15 06:46:16;;;;;;;7.43;4.90;;;2.90;79.40;;;;;;5053726;28;20030;-77
2022/03/15 06:48:41;;;;;;;7.78;4.75;;;2.90;79.30;;;;;;5035025;28;20117;-77
2022/03/15 06:51:07;;;;;;;10.10;4.75;;;2.90;79.30;;;;;;5010263;28;20033;-75
2022/03/15 06:53:33;;;;;;;8.23;4.55;;;2.90;79.40;;;;;;5043330;28;20053;-79
2022/03/15 06:55:58;;;;;;;11.35;4.72;;;3.00;79.50;;;;;;5047355;28;20103;-77
2022/03/15 06:58:24;;;;;;;8.60;5.03;;;3.00;79.50;;;;;;5023793;28;20088;-75
2022/03/15 07:00:49;;;;;;;8.75;4.95;;;3.00;79.60;;;;;;5018831;28;20064;-78
2022/03/15 07:03:15;;;;;;;17.38;8.95;;;3.10;79.60;;;;;;5024068;28;20021;-79
2022/03/15 07:05:41;;;;;;;21.48;10.68;;;3.10;79.70;;;;;;5045501;28;20037;-75
2022/03/15 07:08:06;;;;;;;18.50;9.00;;;3.10;79.60;;;;;;5048255;28;20021;-79
2022/03/15 07:10:33;;;;;;;15.27;8.65;;;3.10;79.70;;;;;;5039631;28;20057;-78
2022/03/15 07:12:58;;;;;;;11.27;7.10;;;3.20;79.80;;;;;;5038961;28;20033;-78
2022/03/15 07:15:24;;;;;;;11.80;7.13;;;3.20;79.80;;;;;;5054445;28;20047;-78
2022/03/15 07:17:51;;;;;;;12.32;6.85;;;3.30;79.80;;;;;;5056860;28;20097;-78
2022/03/15 07:20:17;;;;;;;10.98;7.40;;;3.30;79.90;;;;;;5012800;28;20028;-77
2022/03/15 07:22:42;;;;;;;14.98;8.38;;;3.40;79.80;;;;;;5034814;28;20017;-77
2022/03/15 07:25:09;;;;;;;17.40;8.40;;;3.40;79.90;;;;;;5024093;28;20080;-76
2022/03/15 07:27:34;;;;;;;18.35;10.95;;;3.50;79.90;;;;;;5037609;28;20036;-76
2022/03/15 07:30:00;;;;;;;18.90;9.85;;;3.50;79.90;;;;;;5043242;28;20464;-75
2022/03/15 07:32:26;;;;;;;15.95;10.02;;;3.50;79.80;;;;;;5037004;28;20025;-77
2022/03/15 07:34:51;;;;;;;18.10;10.68;;;3.60;79.90;;;;;;5026291;28;20021;-78
2022/03/15 07:37:17;;;;;;;14.40;9.27;;;3.60;79.80;;;;;;5037296;28;20033;-79
2022/03/15 07:39:43;;;;;;;20.35;9.05;;;3.70;79.90;;;;;;5046613;28;20032;-75
2022/03/15 07:42:08;;;;;;;14.40;8.38;;;3.70;79.80;;;;;;5039767;28;20045;-78
2022/03/15 07:44:34;;;;;;;13.85;7.95;;;3.80;79.90;;;;;;5052482;28;20052;-77
2022/03/15 07:46:59;;;;;;;17.50;8.95;;;3.90;79.80;;;;;;5055124;28;20040;-77
2022/03/15 07:49:25;;;;;;;18.30;10.77;;;3.90;79.80;;;;;;5027166;28;20033;-76
2022/03/15 07:51:51;;;;;;;15.82;10.70;;;4.00;79.90;;;;;;5055672;28;20041;-78
2022/03/15 07:54:16;;;;;;;19.13;11.70;;;4.00;79.80;;;;;;5051210;28;20040;-78
2022/03/15 07:56:42;;;;;;;17.52;10.40;;;4.10;79.90;;;;;;5028846;28;20037;-78
2022/03/15 07:59:07;;;;;;;16.02;10.48;;;4.20;79.90;;;;;;5051413;28;20017;-78
2022/03/15 08:01:34;;;;;;;17.55;10.85;;;4.20;80.60;;;;;;5038459;28;20100;-78
2022/03/15 08:04:00;;;;;;;17.58;9.82;;;4.30;79.70;;;;;;5023793;28;20014;-78
2022/03/15 08:06:25;;;;;;;18.63;8.40;;;4.30;79.70;;;;;;5051843;28;20025;-78
2022/03/15 08:08:56;;;;;;;12.20;7.50;;;4.40;79.80;;;;;;5063595;28;20037;-78
2022/03/15 08:11:25;;;;;;;15.32;7.60;;;4.40;79.80;;;;;;5052982;28;20047;-78
2022/03/15 08:13:53;;;;;;;12.25;7.15;;;4.50;79.70;;;;;;5070244;28;20033;-78
2022/03/15 08:16:18;;;;;;;16.05;9.60;;;4.60;79.70;;;;;;5071246;28;20017;-78
2022/03/15 08:18:44;;;;;;;16.55;10.38;;;4.60;79.60;;;;;;5055515;28;20058;-77
2022/03/15 08:21:10;;;;;;;12.07;7.95;;;4.60;79.60;;;;;;5077121;28;20059;-78
2022/03/15 08:23:35;;;;;;;21.52;10.68;;;4.70;79.70;;;;;;5062538;28;20036;-78
2022/03/15 08:26:01;;;;;;;22.45;12.00;;;4.80;79.60;;;;;;5058287;28;20035;-77
2022/03/15 08:28:26;;;;;;;19.42;9.02;;;4.90;79.60;;;;;;5044747;28;20037;-78
2022/03/15 08:30:53;;;;;;;16.50;8.70;;;4.90;79.60;;;;;;5024129;28;20022;-78
2022/03/15 08:33:18;;;;;;;15.95;8.13;;;5.00;79.60;;;;;;5037367;28;20131;-79
2022/03/15 08:35:44;;;;;;;14.00;6.80;;;5.10;79.60;;;;;;5029995;28;20033;-79
2022/03/15 08:38:11;;;;;;;14.13;6.95;;;5.20;79.60;;;;;;5046958;28;20166;-79
2022/03/15 08:40:36;;;;;;;11.35;6.57;;;5.30;79.70;;;;;;5031572;28;20025;-78
2022/03/15 08:43:02;;;;;;;12.02;7.28;;;5.30;79.60;;;;;;5039917;28;20034;-79
2022/03/15 08:45:28;;;;;;;15.07;7.72;;;5.40;79.60;;;;;;5023332;28;20067;-78
2022/03/15 08:47:53;;;;;;;11.65;6.75;;;5.50;79.50;;;;;;5040537;28;20521;-79
2022/03/15 08:50:19;;;;;;;12.13;6.95;;;5.50;79.40;;;;;;5042843;28;20580;-79
2022/03/15 08:52:45;;;;;;;11.68;7.07;;;5.60;79.40;;;;;;5023875;28;20046;-78
2022/03/15 08:55:10;;;;;;;14.85;6.65;;;5.60;79.30;;;;;;5020113;28;20047;-79
2022/03/15 08:57:36;;;;;;;18.73;7.55;;;5.70;79.40;;;;;;5037728;28;20021;-80
2022/03/15 09:00:06;;;;;;;16.83;7.07;;;5.80;79.30;;;;;;5024957;28;20029;-80
2022/03/15 09:02:32;;;;;;;15.32;7.32;;;5.90;79.20;;;;;;5042287;28;21218;-79
2022/03/15 09:04:57;;;;;;;9.68;5.78;;;6.00;79.10;;;;;;5042339;28;20049;-79
2022/03/15 09:07:23;;;;;;;12.10;6.97;;;6.10;79.00;;;;;;5045127;28;20114;-79
2022/03/15 09:09:48;;;;;;;12.35;7.13;;;6.20;79.00;;;;;;5011304;28;20055;-78
2022/03/15 09:12:16;;;;;;;12.63;6.80;;;6.20;78.90;;;;;;5061647;28;20048;-79
2022/03/15 09:14:41;;;;;;;14.85;7.68;;;6.30;78.90;;;;;;5030451;28;20038;-79
2022/03/15 09:17:07;;;;;;;9.85;7.47;;;6.40;78.80;;;;;;5024126;28;20028;-79
2022/03/15 09:19:33;;;;;;;11.13;7.00;;;6.50;79.50;;;;;;5020259;28;20032;-78
2022/03/15 09:22:01;;;;;;;17.60;10.63;;;6.60;78.70;;;;;;5036966;28;20087;-78
2022/03/15 09:24:27;;;;;;;18.60;11.20;;;6.70;78.50;;;;;;5021083;28;20022;-78
2022/03/15 09:26:52;;;;;;;10.55;7.30;;;6.80;78.40;;;;;;5034900;28;20032;-78
2022/03/15 09:29:18;;;;;;;11.88;6.82;;;6.90;78.30;;;;;;5038262;28;20045;-78
2022/03/15 09:31:43;;;;;;;12.63;7.07;;;7.00;78.20;;;;;;5039911;28;20037;-79
2022/03/15 09:34:09;;;;;;;11.68;7.60;;;7.10;78.10;;;;;;5047617;28;20036;-78
2022/03/15 09:36:34;;;;;;;9.70;6.38;;;7.20;78.00;;;;;;5040460;28;20033;-79
2022/03/15 09:39:01;;;;;;;11.73;6.88;;;7.20;77.80;;;;;;5037942;28;20120;-80
2022/03/15 09:41:26;;;;;;;9.25;6.57;;;7.30;77.70;;;;;;5026849;28;20035;-79
2022/03/15 09:43:53;;;;;;;10.30;5.88;;;7.40;77.60;;;;;;5053957;28;20049;-78
2022/03/15 09:46:21;;;;;;;12.75;7.13;;;7.50;77.50;;;;;;5037523;28;20040;-79
2022/03/15 09:48:49;;;;;;;9.52;6.63;;;7.60;77.40;;;;;;5013703;28;20464;-78
2022/03/15 09:51:15;;;;;;;9.70;6.57;;;7.70;77.40;;;;;;5034116;28;20061;-79
2022/03/15 09:53:40;;;;;;;9.10;5.90;;;7.80;77.30;;;;;;5024595;28;20084;-78
2022/03/15 09:56:06;;;;;;;9.93;5.95;;;7.90;77.20;;;;;;5008204;28;20551;-78
2022/03/15 09:58:32;;;;;;;8.85;5.68;;;7.90;77.00;;;;;;5018719;28;20029;-78
2022/03/15 10:00:57;;;;;;;11.40;6.28;;;8.00;76.80;;;;;;5024108;28;20123;-78
2022/03/15 10:03:23;;;;;;;13.35;6.60;;;8.10;76.70;;;;;;5023816;28;20473;-79
2022/03/15 10:05:49;;;;;;;11.82;6.60;;;8.20;76.60;;;;;;5048248;28;20044;-79
2022/03/15 10:08:18;;;;;;;10.30;6.45;;;8.30;76.40;;;;;;5039447;28;20575;-79
2022/03/15 10:10:53;;;;;;;14.73;6.78;;;8.30;76.30;;;;;;5026124;28;20048;-78
2022/03/15 10:13:19;;;;;;;6.85;5.28;;;8.50;76.30;;;;;;5005619;28;20037;-80
2022/03/15 10:15:52;;;;;;;9.65;6.05;;;8.50;76.00;;;;;;5040311;28;20040;-79
2022/03/15 10:18:18;;;;;;;12.35;6.25;;;8.60;75.90;;;;;;5026265;28;20065;-79
2022/03/15 10:20:43;;;;;;;7.97;5.30;;;8.70;75.70;;;;;;5038656;28;20457;-79
2022/03/15 10:23:10;;;;;;;11.15;5.57;;;8.80;75.60;;;;;;5037958;28;20059;-78
2022/03/15 10:25:36;;;;;;;12.10;6.05;;;8.90;75.40;;;;;;5039628;28;20485;-79
2022/03/15 10:28:04;;;;;;;8.98;5.43;;;9.00;75.20;;;;;;5041203;28;20044;-79
2022/03/15 10:30:30;;;;;;;8.10;5.03;;;9.00;75.10;;;;;;5040560;28;20033;-79
2022/03/15 10:32:55;;;;;;;11.48;6.10;;;9.10;74.90;;;;;;5018575;28;20047;-79
2022/03/15 10:35:24;;;;;;;9.70;5.45;;;9.20;74.80;;;;;;5053613;28;20515;-80
2022/03/15 10:37:50;;;;;;;9.95;6.32;;;9.30;74.70;;;;;;5038624;28;20033;-79
2022/03/15 10:40:16;;;;;;;9.65;6.15;;;9.30;74.50;;;;;;5034839;28;20036;-79
2022/03/15 10:42:43;;;;;;;7.45;5.70;;;9.40;74.40;;;;;;5021311;28;20044;-80
2022/03/15 10:45:19;;;;;;;11.18;6.60;;;9.50;74.20;;;;;;5016722;28;20025;-79
2022/03/15 10:47:55;;;;;;;10.52;6.78;;;9.50;74.20;;;;;;5019424;28;20055;-78
2022/03/15 10:50:21;;;;;;;8.68;5.35;;;9.60;74.10;;;;;;5035866;28;20405;-79
2022/03/15 10:52:47;;;;;;;10.13;6.00;;;9.70;73.90;;;;;;5008917;28;20254;-79
2022/03/15 10:55:28;;;;;;;7.65;5.50;;;9.70;73.70;;;;;;5043490;28;20029;-79
2022/03/15 10:57:53;;;;;;;10.07;5.80;;;9.80;73.60;;;;;;5012162;28;20067;-78
2022/03/15 11:00:23;;;;;;;8.93;5.07;;;9.80;73.40;;;;;;5039486;28;20615;-79
2022/03/15 11:02:51;;;;;;;10.82;4.68;;;9.90;73.20;;;;;;5011106;28;20064;-78
2022/03/15 11:05:33;;;;;;;7.97;5.20;;;10.00;73.10;;;;;;5013428;28;20082;-78
2022/03/15 11:08:08;;;;;;;8.45;4.95;;;10.00;72.80;;;;;;5025632;28;20048;-78
2022/03/15 11:10:38;;;;;;;8.50;4.90;;;10.10;72.80;;;;;;5036756;28;20392;-78
2022/03/15 11:13:11;;;;;;;9.60;5.13;;;10.10;72.60;;;;;;5017832;28;20037;-78
2022/03/15 11:15:46;;;;;;;7.25;5.07;;;10.20;72.50;;;;;;5000149;28;20131;-79
2022/03/15 11:18:12;;;;;;;14.82;7.65;;;10.20;72.30;;;;;;5031136;28;20040;-79
2022/03/15 11:20:43;;;;;;;12.80;7.10;;;10.30;72.20;;;;;;5035505;28;20466;-78
2022/03/15 11:23:10;;;;;;;12.20;6.43;;;10.30;72.00;;;;;;5021627;28;20110;-78
2022/03/15 11:25:48;;;;;;;10.98;6.20;;;10.30;71.80;;;;;;5032651;28;20374;-78
2022/03/15 11:28:28;;;;;;;9.02;5.15;;;10.40;71.70;;;;;;5012147;28;20032;-78
2022/03/15 11:30:54;;;;;;;13.82;5.57;;;10.40;71.60;;;;;;5008820;28;20493;-79
2022/03/15 11:33:20;;;;;;;10.23;5.32;;;10.40;71.50;;;;;;5036550;28;20057;-80
2022/03/15 11:35:46;;;;;;;12.60;5.40;;;10.50;71.40;;;;;;5033833;28;20068;-79
2022/03/15 11:38:13;;;;;;;8.95;5.10;;;10.50;71.30;;;;;;5023806;28;20049;-79
2022/03/15 11:40:39;;;;;;;8.43;4.80;;;10.50;71.10;;;;;;5037009;28;20037;-78
2022/03/15 11:43:25;;;;;;;9.73;5.32;;;10.50;70.90;;;;;;5019454;28;20070;-79
2022/03/15 11:45:58;;;;;;;7.55;4.65;;;10.60;70.80;;;;;;5043395;28;20032;-78
2022/03/15 11:48:42;;;;;;;7.97;5.13;;;10.60;70.70;;;;;;5042472;28;20068;-78
2022/03/15 11:51:15;;;;;;;6.55;4.97;;;10.60;70.50;;;;;;5037405;28;20037;-78
2022/03/15 11:53:53;;;;;;;8.57;5.07;;;10.60;70.40;;;;;;5025459;28;20102;-77
2022/03/15 11:56:31;;;;;;;10.50;5.57;;;10.70;70.40;;;;;;5047869;28;20032;-77
2022/03/15 11:58:58;;;;;;;6.57;5.30;;;10.70;70.20;;;;;;5045671;28;20044;-77
2022/03/15 12:01:23;;;;;;;7.78;4.90;;;10.70;70.10;;;;;;5019692;28;20029;-78
2022/03/15 12:03:54;;;;;;;8.75;5.35;;;10.70;70.00;;;;;;5030003;28;20046;-78
2022/03/15 12:06:32;;;;;;;7.90;5.35;;;10.80;70.00;;;;;;5032600;28;20686;-79
2022/03/15 12:09:00;;;;;;;7.35;4.78;;;10.80;69.80;;;;;;5027001;28;20049;-78
2022/03/15 12:11:37;;;;;;;8.38;4.90;;;10.80;69.70;;;;;;5005762;28;20565;-76
2022/03/15 12:14:07;;;;;;;6.97;4.47;;;10.90;69.60;;;;;;5019796;28;20046;-78
2022/03/15 12:16:47;;;;;;;7.28;4.78;;;10.80;69.50;;;;;;5034954;28;20045;-78
2022/03/15 12:19:39;;;;;;;5.78;4.22;;;10.90;69.40;;;;;;5049962;28;20028;-78
2022/03/15 12:22:06;;;;;;;;;;;10.90;69.30;;;;;;4988540;28;20756;-79
2022/03/15 12:24:44;;;;;;;10.30;4.38;;;11.00;69.30;;;;;;5039475;28;19924;-79
2022/03/15 12:27:18;;;;;;;7.53;5.00;;;11.00;69.20;;;;;;5045513;28;20060;-78
2022/03/15 12:29:53;;;;;;;6.35;4.70;;;11.00;69.10;;;;;;5045221;28;20029;-79
2022/03/15 12:32:19;;;;;;;7.18;4.63;;;11.00;69.00;;;;;;5003444;28;20037;-79
2022/03/15 12:34:49;;;;;;;8.95;4.70;;;11.00;68.90;;;;;;5016825;28;20376;-79
2022/03/15 12:37:16;;;;;;;9.25;5.25;;;11.10;68.80;;;;;;5034888;28;20033;-79
2022/03/15 12:39:41;;;;;;;7.03;4.82;;;11.10;68.80;;;;;;5002390;28;20037;-79
2022/03/15 12:42:07;;;;;;;10.30;5.80;;;11.10;68.70;;;;;;5042132;28;20032;-78
2022/03/15 12:44:50;;;;;;;8.07;5.10;;;11.10;68.60;;;;;;5043518;28;20500;-79
2022/03/15 12:47:26;;;;;;;8.23;5.25;;;11.20;68.60;;;;;;5015818;28;20459;-79
2022/03/15 12:50:04;;;;;;;12.57;5.53;;;11.20;68.50;;;;;;5039027;28;20412;-79